Pitangui, Brazil
Current Conditions -  °F | °C
As of 5:00 AM on Monday 22 Dec 2014 (Local Time) from SBBH Reporting Station
Overcast Overcast  
Wind Chill: 70°   Ceiling: 9000
Heat Index: 70°   Visibility: 6mi
Dew Point: 66°   Wind: 3mph
Humidity: 88%   Direction: 80°E
Pressure: 30.03"   Gusts: NA
Location:  19.68°S, 44.89°W
Report Text: SBBH 220700Z 08003KT 9999 SCT009 SCT070 OVC090 21/19 Q1017
Loading
Personal Weather Stations






























Interactive Weather Map New forecast layout! Learn more

10-Day Weather Forecast

Advertisements
Track Severe Weather on mobile